createdAt,value
2023-05-17T00:02:48.922Z,99043.69
2023-05-17T00:05:54.536Z,99051.31
2023-05-17T00:08:58.663Z,99060.84
2023-05-17T00:12:02.708Z,99056.06
2023-05-17T00:15:07.939Z,99061.59
2023-05-17T00:18:12.106Z,99064.00
2023-05-17T00:21:17.715Z,99062.81
2023-05-17T00:24:21.711Z,99062.09
2023-05-17T00:27:25.784Z,99060.84
2023-05-17T00:30:29.877Z,99070.53
2023-05-17T00:33:33.818Z,99059.66
2023-05-17T00:36:39.269Z,99061.56
2023-05-17T00:39:43.197Z,99055.50
2023-05-17T00:42:47.248Z,99047.78
2023-05-17T00:45:52.197Z,99053.13
2023-05-17T00:48:57.627Z,99045.44
2023-05-17T00:52:03.557Z,99030.22
2023-05-17T00:55:08.358Z,99030.97
2023-05-17T00:58:13.090Z,99022.03
2023-05-17T01:01:17.212Z,99027.31
2023-05-17T01:04:21.786Z,99039.47
2023-05-17T01:07:27.349Z,99039.38
2023-05-17T01:10:39.390Z,99047.94
2023-05-17T01:13:53.951Z,99043.69
2023-05-17T01:17:01.354Z,99038.34
2023-05-17T01:20:11.140Z,99048.97
2023-05-17T01:23:32.576Z,99048.03
2023-05-17T01:26:44.368Z,99044.00
2023-05-17T01:29:51.576Z,99037.13
2023-05-17T01:32:59.281Z,99027.22
2023-05-17T01:36:03.685Z,99016.63
2023-05-17T01:39:08.991Z,99017.38
2023-05-17T01:42:22.341Z,99013.25
2023-05-17T01:45:30.321Z,99013.25
2023-05-17T01:48:41.608Z,99023.44
2023-05-17T01:51:50.434Z,99017.66
2023-05-17T01:55:01.097Z,99017.22
2023-05-17T01:58:09.228Z,99015.38
2023-05-17T02:01:15.076Z,99023.28
2023-05-17T02:04:20.932Z,99015.63
2023-05-17T02:07:25.067Z,99016.84
2023-05-17T02:10:32.483Z,99015.00
2023-05-17T02:13:38.020Z,99013.47
2023-05-17T02:16:42.100Z,99016.69
2023-05-17T02:19:46.136Z,99024.63
2023-05-17T02:22:50.276Z,99033.22
2023-05-17T02:25:54.091Z,99028.00
2023-05-17T02:28:59.791Z,99032.47
2023-05-17T02:32:03.821Z,99030.84
2023-05-17T02:35:08.773Z,99023.53
2023-05-17T02:38:12.737Z,99032.56
2023-05-17T02:41:18.435Z,99037.25
2023-05-17T02:44:26.277Z,99048.34
2023-05-17T02:47:30.537Z,99047.03
2023-05-17T02:50:34.677Z,99035.16
2023-05-17T02:53:38.935Z,99049.75
2023-05-17T02:56:44.567Z,99038.97
2023-05-17T02:59:50.342Z,99039.91
2023-05-17T03:02:54.427Z,99038.50
2023-05-17T03:06:02.756Z,99049.31
2023-05-17T03:09:07.334Z,99049.63
2023-05-17T03:12:12.037Z,99052.84
2023-05-17T03:15:18.269Z,99056.13
2023-05-17T03:18:23.109Z,99053.00
2023-05-17T03:21:27.734Z,99071.59
2023-05-17T03:24:32.723Z,99067.06
2023-05-17T03:27:38.003Z,99078.13
2023-05-17T03:30:44.330Z,99084.56
2023-05-17T03:33:48.691Z,99080.94
2023-05-17T03:36:52.574Z,99075.56
2023-05-17T03:39:56.233Z,99081.09
2023-05-17T03:43:00.603Z,99081.22
2023-05-17T03:46:06.674Z,99086.44
2023-05-17T03:49:10.787Z,99092.66
2023-05-17T03:52:15.536Z,99088.50
2023-05-17T03:55:19.435Z,99091.53
2023-05-17T03:58:23.733Z,99096.94
2023-05-17T04:01:29.112Z,99092.94
2023-05-17T04:04:33.171Z,99095.59
2023-05-17T04:07:37.187Z,99094.34
2023-05-17T04:10:42.488Z,99094.22
2023-05-17T04:13:46.541Z,99087.66
2023-05-17T04:16:52.054Z,99098.59
2023-05-17T04:19:56.534Z,99097.97
2023-05-17T04:23:01.141Z,99095.53
2023-05-17T04:26:07.807Z,99100.41
2023-05-17T04:29:15.915Z,99095.72
2023-05-17T04:32:21.742Z,99081.72
2023-05-17T04:35:26.074Z,99084.56
2023-05-17T04:38:32.033Z,99086.66
2023-05-17T04:41:36.370Z,99083.44
2023-05-17T04:44:42.796Z,99076.63
2023-05-17T04:47:50.719Z,99075.97
2023-05-17T04:50:55.131Z,99074.00
2023-05-17T04:54:01.296Z,99076.84
2023-05-17T04:57:07.716Z,99081.78
2023-05-17T05:00:34.828Z,99075.19
2023-05-17T05:03:43.057Z,99088.09
2023-05-17T05:06:49.021Z,99097.81
2023-05-17T05:09:53.414Z,99096.47
2023-05-17T05:12:59.727Z,99110.09
2023-05-17T05:16:05.527Z,99105.56
2023-05-17T05:19:11.439Z,99098.69
2023-05-17T05:22:16.354Z,99101.16
2023-05-17T05:25:21.693Z,99108.56
2023-05-17T05:28:25.949Z,99117.53
2023-05-17T05:31:31.009Z,99105.19
2023-05-17T05:34:40.251Z,99111.44
2023-05-17T05:37:44.774Z,99097.53
2023-05-17T05:40:49.674Z,99114.53
2023-05-17T05:43:53.727Z,99115.94
2023-05-17T05:46:57.792Z,99109.47
2023-05-17T05:50:06.269Z,99114.47
2023-05-17T05:53:18.834Z,99115.59
2023-05-17T05:56:28.569Z,99117.97
2023-05-17T05:59:32.815Z,99113.38
2023-05-17T06:02:37.783Z,99111.47
2023-05-17T06:05:43.530Z,99117.13
2023-05-17T06:08:47.815Z,99108.88
2023-05-17T06:11:54.991Z,99104.09
2023-05-17T06:14:59.037Z,99107.13
2023-05-17T06:18:03.143Z,99122.13
2023-05-17T06:21:08.783Z,99124.56
2023-05-17T06:24:12.816Z,99126.63
2023-05-17T06:27:16.826Z,99127.03
2023-05-17T06:30:21.027Z,99123.41
2023-05-17T06:33:25.186Z,99115.88
2023-05-17T06:36:32.534Z,99118.13
2023-05-17T06:39:36.984Z,99112.44
2023-05-17T06:42:41.293Z,99112.03
2023-05-17T06:45:45.288Z,99124.84
2023-05-17T06:48:51.225Z,99125.84
2023-05-17T06:52:02.893Z,99117.34
2023-05-17T06:55:07.868Z,99130.69
2023-05-17T06:58:12.112Z,99135.59
2023-05-17T07:01:16.143Z,99144.75
2023-05-17T07:04:20.726Z,99154.50
2023-05-17T07:07:26.446Z,99153.09
2023-05-17T07:10:30.852Z,99168.72
2023-05-17T07:13:35.213Z,99175.59
2023-05-17T07:16:39.231Z,99176.75
2023-05-17T07:19:43.407Z,99170.50
2023-05-17T07:22:49.555Z,99162.75
2023-05-17T07:25:53.619Z,99162.56
2023-05-17T07:28:57.997Z,99153.81
2023-05-17T07:32:01.994Z,99162.34
2023-05-17T07:35:06.318Z,99161.53
2023-05-17T07:38:12.194Z,99154.25
2023-05-17T07:41:17.392Z,99154.56
2023-05-17T07:44:22.036Z,99149.09
2023-05-17T07:47:26.256Z,99146.47
2023-05-17T07:50:31.051Z,99140.59
2023-05-17T07:53:36.607Z,99142.31
2023-05-17T07:56:40.767Z,99153.25
2023-05-17T07:59:44.777Z,99163.06
2023-05-17T08:02:48.838Z,99161.66
2023-05-17T08:05:52.890Z,99165.72
2023-05-17T08:08:58.632Z,99156.00
2023-05-17T08:12:02.938Z,99157.19
2023-05-17T08:15:07.984Z,99148.03
2023-05-17T08:18:12.277Z,99145.22
2023-05-17T08:21:16.398Z,99140.38
2023-05-17T08:24:21.834Z,99141.78
2023-05-17T08:27:27.292Z,99146.41
2023-05-17T08:30:31.855Z,99140.09
2023-05-17T08:33:36.931Z,99135.03
2023-05-17T08:36:41.001Z,99117.16
2023-05-17T08:39:46.767Z,99142.13
2023-05-17T08:42:52.209Z,99148.41
2023-05-17T08:45:58.151Z,99154.88
2023-05-17T08:49:04.734Z,99168.13
2023-05-17T08:52:11.593Z,99167.28
2023-05-17T08:55:18.511Z,99175.44
2023-05-17T08:58:27.627Z,99173.38
2023-05-17T09:01:33.230Z,99173.34
2023-05-17T09:04:38.150Z,99170.06
2023-05-17T09:07:42.667Z,99181.00
2023-05-17T09:10:48.269Z,99177.84
2023-05-17T09:13:52.476Z,99173.72
2023-05-17T09:16:58.862Z,99162.38
2023-05-17T09:20:03.114Z,99151.81
2023-05-17T09:23:09.996Z,99153.41
2023-05-17T09:26:15.846Z,99143.25
2023-05-17T09:29:21.268Z,99141.69
2023-05-17T09:32:25.499Z,99145.31
2023-05-17T09:35:31.049Z,99132.31
2023-05-17T09:38:35.309Z,99153.38
2023-05-17T09:41:47.358Z,99153.81
2023-05-17T09:44:54.889Z,99147.72
2023-05-17T09:47:59.596Z,99147.63
2023-05-17T09:51:03.817Z,99150.09
2023-05-17T09:54:08.697Z,99154.19
2023-05-17T09:57:14.433Z,99146.19
2023-05-17T10:00:19.976Z,99152.94
2023-05-17T10:03:24.267Z,99153.94
2023-05-17T10:06:44.756Z,99147.16
2023-05-17T10:09:51.733Z,99147.31
2023-05-17T10:12:57.730Z,99139.31
2023-05-17T10:16:03.552Z,99145.72
2023-05-17T10:19:08.190Z,99137.84
2023-05-17T10:25:23.809Z,99136.13
2023-05-17T10:28:29.914Z,99131.97
2023-05-17T10:31:35.054Z,99135.44
2023-05-17T10:34:40.661Z,99134.22
2023-05-17T10:37:44.780Z,99126.53
2023-05-17T10:40:50.114Z,99116.78
2023-05-17T10:43:57.144Z,99125.31
2023-05-17T10:47:02.249Z,99117.44
2023-05-17T10:50:13.526Z,99119.25
2023-05-17T10:53:17.589Z,99126.53
2023-05-17T10:56:23.789Z,99138.22
2023-05-17T10:59:32.355Z,99134.47
2023-05-17T11:02:41.776Z,99123.66
2023-05-17T11:05:48.107Z,99130.47
2023-05-17T11:09:15.801Z,99131.53
2023-05-17T11:12:32.117Z,99127.66
2023-05-17T11:15:39.089Z,99113.25
2023-05-17T11:18:49.157Z,99110.72
2023-05-17T11:21:53.335Z,99113.09
2023-05-17T11:24:59.150Z,99113.72
2023-05-17T11:28:09.277Z,99111.91
2023-05-17T11:31:14.831Z,99103.22
2023-05-17T11:34:20.274Z,99104.25
2023-05-17T11:37:28.656Z,99100.38
2023-05-17T11:40:33.828Z,99106.88
2023-05-17T11:43:38.551Z,99096.47
2023-05-17T11:46:45.335Z,99098.69
2023-05-17T11:49:54.358Z,99081.06
2023-05-17T11:53:00.530Z,99084.94
2023-05-17T11:56:05.792Z,99091.22
2023-05-17T11:59:10.028Z,99094.09
2023-05-17T12:02:28.720Z,99086.03
2023-05-17T12:05:32.898Z,99079.47
2023-05-17T12:08:38.234Z,99080.81
2023-05-17T12:11:43.700Z,99083.59
2023-05-17T12:14:48.614Z,99080.22
2023-05-17T12:17:56.861Z,99079.63
2023-05-17T12:21:01.777Z,99079.41
2023-05-17T12:24:06.340Z,99073.13
2023-05-17T12:27:10.795Z,99078.41
2023-05-17T12:30:18.569Z,99077.81
2023-05-17T12:33:24.081Z,99083.72
2023-05-17T12:36:30.754Z,99087.00
2023-05-17T12:39:34.791Z,99078.44
2023-05-17T12:42:41.171Z,99080.66
2023-05-17T12:45:45.340Z,99078.25
2023-05-17T12:48:52.277Z,99077.81
2023-05-17T12:51:56.372Z,99076.13
2023-05-17T12:55:01.133Z,99073.31
2023-05-17T12:58:05.980Z,99063.63
2023-05-17T13:01:14.090Z,99060.00
2023-05-17T13:04:20.704Z,99060.97
2023-05-17T13:07:26.181Z,99062.22
2023-05-17T13:10:30.759Z,99049.41
2023-05-17T13:13:35.560Z,99052.88
2023-05-17T13:16:40.176Z,99050.25
2023-05-17T13:19:45.845Z,99036.88
2023-05-17T13:22:50.314Z,99021.41
2023-05-17T13:25:54.764Z,99037.66
2023-05-17T13:28:58.838Z,99038.88
2023-05-17T13:32:03.241Z,99032.00
2023-05-17T13:35:09.783Z,99034.22
2023-05-17T13:38:13.792Z,99028.94
2023-05-17T13:41:17.919Z,99026.53
2023-05-17T13:44:22.070Z,99037.06
2023-05-17T13:47:26.625Z,99042.56
2023-05-17T13:50:32.263Z,99034.22
2023-05-17T13:53:36.576Z,99036.66
2023-05-17T13:56:40.614Z,99043.78
2023-05-17T13:59:45.957Z,99049.44
2023-05-17T14:02:50.434Z,99040.50
2023-05-17T14:05:56.054Z,99035.00
2023-05-17T14:09:01.237Z,99028.06
2023-05-17T14:12:05.906Z,99026.06
2023-05-17T14:15:11.636Z,99021.81
2023-05-17T14:18:15.868Z,99014.84
2023-05-17T14:21:21.601Z,99009.59
2023-05-17T14:24:25.815Z,99004.97
2023-05-17T14:27:29.964Z,99005.22
2023-05-17T14:30:34.611Z,98996.25
2023-05-17T14:33:38.803Z,99000.31
2023-05-17T14:36:44.365Z,98998.47
2023-05-17T14:40:05.325Z,98992.19
2023-05-17T14:43:10.950Z,98989.16
2023-05-17T14:46:15.137Z,98984.28
2023-05-17T14:49:19.241Z,98979.00
2023-05-17T14:52:24.878Z,98986.94
2023-05-17T14:55:29.115Z,98984.06
2023-05-17T14:58:33.383Z,98988.31
2023-05-17T15:01:37.488Z,98986.50
2023-05-17T15:04:41.956Z,98987.69
2023-05-17T15:07:47.791Z,98982.81
2023-05-17T15:10:52.190Z,98977.09
2023-05-17T15:13:56.738Z,98970.25
2023-05-17T15:17:00.803Z,98973.72
2023-05-17T15:20:05.364Z,98982.41
2023-05-17T15:23:11.051Z,98991.38
2023-05-17T15:26:15.049Z,98994.81
2023-05-17T15:29:19.136Z,99004.81
2023-05-17T15:32:23.256Z,98997.59
2023-05-17T15:35:28.223Z,98991.31
2023-05-17T15:38:33.801Z,98987.91
2023-05-17T15:41:37.878Z,98983.28
2023-05-17T15:44:41.893Z,98981.66
2023-05-17T15:47:46.669Z,98978.00
2023-05-17T15:50:50.932Z,98978.00
2023-05-17T15:53:57.463Z,98981.25
2023-05-17T15:57:01.512Z,98983.69
2023-05-17T16:00:06.572Z,98982.66
2023-05-17T16:03:10.700Z,98987.34
2023-05-17T16:06:16.046Z,98991.59
2023-05-17T16:09:21.711Z,98991.19
2023-05-17T16:12:25.840Z,98993.44
2023-05-17T16:15:29.997Z,99006.63
2023-05-17T16:18:34.455Z,99003.56
2023-05-17T16:21:39.297Z,99002.97
2023-05-17T16:24:44.746Z,99002.97
2023-05-17T16:27:49.560Z,98993.03
2023-05-17T16:30:54.742Z,98997.47
2023-05-17T16:33:58.954Z,99001.13
2023-05-17T16:37:04.420Z,99000.13
2023-05-17T16:40:11.239Z,99003.97
2023-05-17T16:43:16.563Z,99007.03
2023-05-17T16:46:24.996Z,99011.06
2023-05-17T16:49:30.537Z,99009.84
2023-05-17T16:52:34.503Z,99010.47
2023-05-17T16:55:40.183Z,99011.88
2023-05-17T16:58:44.279Z,99010.06
2023-05-17T17:01:48.308Z,99024.28
2023-05-17T17:04:52.591Z,99027.28
2023-05-17T17:07:56.817Z,99034.16
2023-05-17T17:11:02.315Z,99029.31
2023-05-17T17:14:07.188Z,99025.66
2023-05-17T17:17:11.250Z,99025.22
2023-05-17T17:20:15.557Z,99018.16
2023-05-17T17:23:19.613Z,99016.44
2023-05-17T17:26:25.145Z,99014.00
2023-05-17T17:29:29.233Z,99011.63
2023-05-17T17:32:33.471Z,99020.50
2023-05-17T17:35:37.618Z,99014.06
2023-05-17T17:38:41.734Z,99012.75
2023-05-17T17:41:47.268Z,99016.28
2023-05-17T17:44:51.444Z,99017.72
2023-05-17T17:47:55.588Z,99021.50
2023-05-17T17:50:59.715Z,99018.13
2023-05-17T17:54:05.873Z,99029.00
2023-05-17T17:57:11.400Z,99032.50
2023-05-17T18:00:16.541Z,99047.16
2023-05-17T18:03:20.604Z,99046.50
2023-05-17T18:06:25.109Z,99053.84
2023-05-17T18:09:29.128Z,99060.13
2023-05-17T18:12:34.816Z,99060.75
2023-05-17T18:15:40.312Z,99056.06
2023-05-17T18:18:44.662Z,99059.09
2023-05-17T18:21:50.585Z,99052.03
2023-05-17T18:24:54.716Z,99058.50
2023-05-17T18:28:00.227Z,99052.00
2023-05-17T18:31:04.311Z,99047.31
2023-05-17T18:34:08.400Z,99055.88
2023-05-17T18:37:12.420Z,99058.09
2023-05-17T18:40:16.838Z,99054.00
2023-05-17T18:43:22.335Z,99053.22
2023-05-17T18:46:26.569Z,99049.50
2023-05-17T18:49:30.589Z,99057.00
2023-05-17T18:52:34.751Z,99057.81
2023-05-17T18:55:38.855Z,99052.53
2023-05-17T18:58:46.197Z,99063.53
2023-05-17T19:01:50.704Z,99058.28
2023-05-17T19:04:54.734Z,99065.06
2023-05-17T19:07:58.776Z,99074.81
2023-05-17T19:11:04.419Z,99067.47
2023-05-17T19:14:09.854Z,99072.69
2023-05-17T19:17:14.130Z,99078.84
2023-05-17T19:20:18.338Z,99068.91
2023-05-17T19:23:23.079Z,99065.81
2023-05-17T19:26:27.260Z,99068.69
2023-05-17T19:29:33.369Z,99070.19
2023-05-17T19:32:38.461Z,99069.69
2023-05-17T19:35:42.625Z,99061.00
2023-05-17T19:38:46.714Z,99062.75
2023-05-17T19:41:50.983Z,99059.50
2023-05-17T19:44:56.520Z,99058.47
2023-05-17T19:48:00.690Z,99052.59
2023-05-17T19:51:04.922Z,99045.78
2023-05-17T19:54:08.924Z,99037.84
2023-05-17T19:57:13.010Z,99041.66
2023-05-17T20:00:19.402Z,99036.16
2023-05-17T20:03:23.494Z,99026.94
2023-05-17T20:06:27.653Z,99026.91
2023-05-17T20:09:32.442Z,99031.94
2023-05-17T20:12:36.539Z,99026.41
2023-05-17T20:15:42.179Z,99031.84
2023-05-17T20:18:46.870Z,99023.41
2023-05-17T20:21:50.930Z,99020.16
2023-05-17T20:24:57.174Z,99025.34
2023-05-17T20:28:02.110Z,99011.78
2023-05-17T20:31:07.660Z,99005.88
2023-05-17T20:34:12.276Z,99018.13
2023-05-17T20:37:16.407Z,99013.25
2023-05-17T20:40:21.226Z,99017.72
2023-05-17T20:43:29.117Z,99015.53
2023-05-17T20:46:35.764Z,99019.69
2023-05-17T20:49:40.026Z,99023.31
2023-05-17T20:52:44.169Z,99015.19
2023-05-17T20:55:48.154Z,99016.50
2023-05-17T20:58:52.191Z,99019.09
2023-05-17T21:01:57.964Z,99010.56
2023-05-17T21:05:03.642Z,99013.84
2023-05-17T21:08:08.833Z,99021.25
2023-05-17T21:11:15.559Z,99026.25
2023-05-17T21:14:19.630Z,99027.16
2023-05-17T21:17:25.171Z,99032.63
2023-05-17T21:20:29.429Z,99029.53
2023-05-17T21:23:33.589Z,99025.28
2023-05-17T21:26:40.562Z,99024.13
2023-05-17T21:29:45.389Z,99021.56
2023-05-17T21:32:50.963Z,99028.53
2023-05-17T21:35:55.077Z,99029.53
2023-05-17T21:38:59.039Z,99026.56
2023-05-17T21:42:03.470Z,99024.66
2023-05-17T21:45:08.614Z,99026.06
2023-05-17T21:48:14.279Z,99031.28
2023-05-17T21:51:18.388Z,99031.06
2023-05-17T21:54:22.514Z,99029.66
2023-05-17T21:57:26.589Z,99029.03
2023-05-17T22:00:30.959Z,99021.03
2023-05-17T22:03:36.853Z,99025.13
2023-05-17T22:06:40.970Z,99024.53
2023-05-17T22:09:45.896Z,99021.47
2023-05-17T22:12:50.557Z,99025.34
2023-05-17T22:15:57.818Z,99021.47
2023-05-17T22:19:04.175Z,99034.06
2023-05-17T22:22:08.785Z,99033.00
2023-05-17T22:25:13.572Z,99043.41
2023-05-17T22:28:18.888Z,99048.84
2023-05-17T22:31:23.132Z,99034.41
2023-05-17T22:34:28.794Z,99039.47
2023-05-17T22:37:33.191Z,99036.66
2023-05-17T22:40:37.414Z,99039.75
2023-05-17T22:43:42.061Z,99049.03
2023-05-17T22:46:47.002Z,99058.66
2023-05-17T22:49:53.279Z,99054.19
2023-05-17T22:52:58.951Z,99052.53
2023-05-17T22:56:02.894Z,99045.03
2023-05-17T22:59:06.890Z,99040.50
2023-05-17T23:02:11.150Z,99045.03
2023-05-17T23:05:16.652Z,99027.03
2023-05-17T23:08:22.661Z,99022.06
2023-05-17T23:11:26.611Z,99019.81
2023-05-17T23:14:30.597Z,99018.06
2023-05-17T23:17:35.969Z,99011.56
2023-05-17T23:20:42.433Z,99016.19
2023-05-17T23:23:47.651Z,99010.38
2023-05-17T23:26:51.587Z,99015.06
2023-05-17T23:29:56.768Z,99018.53
2023-05-17T23:33:02.919Z,99015.81
2023-05-17T23:36:09.209Z,99009.97
2023-05-17T23:39:13.234Z,99014.84
2023-05-17T23:42:17.158Z,99018.63
2023-05-17T23:45:21.541Z,99009.16
2023-05-17T23:48:25.981Z,99007.59
2023-05-17T23:51:33.528Z,99006.78
2023-05-17T23:54:37.553Z,99012.44
2023-05-17T23:57:42.716Z,99011.22
